createdAt,value
2022-09-11T00:01:22.249Z,13.45
2022-09-11T00:03:50.206Z,13.46
2022-09-11T00:06:29.199Z,13.48
2022-09-11T00:09:01.561Z,13.43
2022-09-11T00:11:31.314Z,13.42
2022-09-11T00:13:59.481Z,13.44
2022-09-11T00:16:30.055Z,13.38
2022-09-11T00:19:01.021Z,13.41
2022-09-11T00:21:30.418Z,13.38
2022-09-11T00:23:59.837Z,13.37
2022-09-11T00:26:28.388Z,13.36
2022-09-11T00:28:57.341Z,13.28
2022-09-11T00:31:27.905Z,13.27
2022-09-11T00:33:56.724Z,13.34
2022-09-11T00:36:26.365Z,13.24
2022-09-11T00:38:55.785Z,13.21
2022-09-11T00:41:27.612Z,13.18
2022-09-11T00:43:59.532Z,13.10
2022-09-11T00:46:37.327Z,13.10
2022-09-11T00:49:15.917Z,13.11
2022-09-11T00:51:45.919Z,13.07
2022-09-11T00:54:17.106Z,13.06
2022-09-11T00:56:47.436Z,13.04
2022-09-11T00:59:16.657Z,13.00
2022-09-11T01:01:44.680Z,13.02
2022-09-11T01:04:13.162Z,13.00
2022-09-11T01:06:41.278Z,12.98
2022-09-11T01:09:09.236Z,13.00
2022-09-11T01:11:53.488Z,12.98
2022-09-11T01:14:34.849Z,12.89
2022-09-11T01:17:18.136Z,12.94
2022-09-11T01:20:16.620Z,12.93
2022-09-11T01:23:13.673Z,13.00
2022-09-11T01:26:02.150Z,12.95
2022-09-11T01:28:37.229Z,12.98
2022-09-11T01:31:11.445Z,12.92
2022-09-11T01:33:46.251Z,12.92
2022-09-11T01:36:21.117Z,12.98
2022-09-11T01:38:53.879Z,12.99
2022-09-11T01:41:29.083Z,13.02
2022-09-11T01:44:03.681Z,12.98
2022-09-11T01:46:35.472Z,13.00
2022-09-11T01:49:07.673Z,12.98
2022-09-11T01:51:38.227Z,13.00
2022-09-11T01:54:09.630Z,12.98
2022-09-11T01:56:42.716Z,12.90
2022-09-11T01:59:18.010Z,12.99
2022-09-11T02:01:51.269Z,12.86
2022-09-11T02:04:24.488Z,12.99
2022-09-11T02:06:59.270Z,13.02
2022-09-11T02:09:33.451Z,13.03
2022-09-11T02:12:06.885Z,12.97
2022-09-11T02:14:40.873Z,12.95
2022-09-11T02:17:16.894Z,13.00
2022-09-11T02:19:44.952Z,13.06
2022-09-11T02:22:13.094Z,13.06
2022-09-11T02:24:41.040Z,13.04
2022-09-11T02:27:13.457Z,13.03
2022-09-11T02:29:43.481Z,13.00
2022-09-11T02:32:11.853Z,12.96
2022-09-11T02:34:43.001Z,12.96
2022-09-11T02:37:31.201Z,13.04
2022-09-11T02:40:22.190Z,13.01
2022-09-11T02:43:08.656Z,13.01
2022-09-11T02:45:47.961Z,13.05
2022-09-11T02:48:31.051Z,13.06
2022-09-11T02:51:04.101Z,13.05
2022-09-11T02:53:39.719Z,13.07
2022-09-11T02:56:13.121Z,13.04
2022-09-11T02:58:47.355Z,13.07
2022-09-11T03:01:16.731Z,13.02
2022-09-11T03:03:46.637Z,13.01
2022-09-11T03:06:17.498Z,12.87
2022-09-11T03:08:45.605Z,13.00
2022-09-11T03:11:15.348Z,13.00
2022-09-11T03:13:43.972Z,13.02
2022-09-11T03:16:12.277Z,13.03
2022-09-11T03:18:42.053Z,13.05
2022-09-11T03:21:11.342Z,13.06
2022-09-11T03:23:39.483Z,13.08
2022-09-11T03:26:07.520Z,13.11
2022-09-11T03:28:35.739Z,13.08
2022-09-11T03:31:05.040Z,13.12
2022-09-11T03:33:33.011Z,13.09
2022-09-11T03:36:03.358Z,13.09
2022-09-11T03:38:31.315Z,13.11
2022-09-11T03:40:59.376Z,13.06
2022-09-11T03:43:27.308Z,13.03
2022-09-11T03:45:55.337Z,12.99
2022-09-11T03:48:25.433Z,13.08
2022-09-11T03:50:53.397Z,13.12
2022-09-11T03:53:22.716Z,13.12
2022-09-11T03:55:50.873Z,13.11
2022-09-11T03:58:19.582Z,13.14
2022-09-11T04:00:48.333Z,13.14
2022-09-11T04:03:17.463Z,13.15
2022-09-11T04:05:57.759Z,13.15
2022-09-11T04:08:27.441Z,13.17
2022-09-11T04:10:59.091Z,13.20
2022-09-11T04:13:28.474Z,13.20
2022-09-11T04:16:00.318Z,13.21
2022-09-11T04:18:29.346Z,13.19
2022-09-11T04:20:57.508Z,13.20
2022-09-11T04:23:27.119Z,13.17
2022-09-11T04:25:55.064Z,13.20
2022-09-11T04:28:23.654Z,13.21
2022-09-11T04:30:51.597Z,13.24
2022-09-11T04:33:19.526Z,13.25
2022-09-11T04:35:47.923Z,13.20
2022-09-11T04:38:15.896Z,13.22
2022-09-11T04:40:45.592Z,13.16
2022-09-11T04:43:13.940Z,13.21
2022-09-11T04:45:41.912Z,13.20
2022-09-11T04:48:09.880Z,13.20
2022-09-11T04:50:37.841Z,13.23
2022-09-11T04:53:06.741Z,13.25
2022-09-11T04:55:34.672Z,13.27
2022-09-11T04:58:04.002Z,13.22
2022-09-11T05:00:32.201Z,13.24
2022-09-11T05:03:00.117Z,13.25
2022-09-11T05:05:28.044Z,13.28
2022-09-11T05:07:55.968Z,13.28
2022-09-11T05:10:23.884Z,13.29
2022-09-11T05:12:51.814Z,13.30
2022-09-11T05:15:21.075Z,13.33
2022-09-11T05:17:50.703Z,13.39
2022-09-11T05:20:18.681Z,13.40
2022-09-11T05:22:47.011Z,13.45
2022-09-11T05:25:15.120Z,13.45
2022-09-11T05:27:43.041Z,13.47
2022-09-11T05:30:12.278Z,13.44
2022-09-11T05:32:41.565Z,13.46
2022-09-11T05:35:09.843Z,13.43
2022-09-11T05:37:37.785Z,13.46
2022-09-11T05:40:06.882Z,13.51
2022-09-11T05:42:34.907Z,13.41
2022-09-11T05:45:02.820Z,13.42
2022-09-11T05:47:30.764Z,13.43
2022-09-11T05:50:00.125Z,13.47
2022-09-11T05:52:32.036Z,13.45
2022-09-11T05:54:59.984Z,13.53
2022-09-11T05:57:27.915Z,13.55
2022-09-11T05:59:55.859Z,13.58
2022-09-11T06:02:23.869Z,13.66
2022-09-11T06:04:52.023Z,13.71
2022-09-11T06:07:21.333Z,13.71
2022-09-11T06:09:49.297Z,13.68
2022-09-11T06:12:18.494Z,13.63
2022-09-11T06:14:46.410Z,13.67
2022-09-11T06:17:14.328Z,13.71
2022-09-11T06:19:42.291Z,13.68
2022-09-11T06:22:10.311Z,13.64
2022-09-11T06:24:39.609Z,13.66
2022-09-11T06:27:07.582Z,13.67
2022-09-11T06:29:35.525Z,13.69
2022-09-11T06:32:03.861Z,13.70
2022-09-11T06:34:32.529Z,13.73
2022-09-11T06:37:00.482Z,13.73
2022-09-11T06:39:28.414Z,13.76
2022-09-11T06:41:57.709Z,13.74
2022-09-11T06:44:27.354Z,13.81
2022-09-11T06:46:55.801Z,13.83
2022-09-11T06:49:23.705Z,13.86
2022-09-11T06:51:52.300Z,13.92
2022-09-11T06:54:20.561Z,13.93
2022-09-11T06:56:48.470Z,13.88
2022-09-11T06:59:17.798Z,13.87
2022-09-11T07:01:45.769Z,13.90
2022-09-11T07:04:13.732Z,13.93
2022-09-11T07:06:41.666Z,13.87
2022-09-11T07:09:12.537Z,13.93
2022-09-11T07:11:43.775Z,14.07
2022-09-11T07:14:12.043Z,14.02
2022-09-11T07:16:41.385Z,14.01
2022-09-11T07:19:10.498Z,13.94
2022-09-11T07:21:38.456Z,13.89
2022-09-11T07:24:07.053Z,13.81
2022-09-11T07:26:35.660Z,13.83
2022-09-11T07:29:03.708Z,13.80
2022-09-11T07:31:34.369Z,13.82
2022-09-11T07:34:03.765Z,13.88
2022-09-11T07:36:34.383Z,14.02
2022-09-11T07:39:03.697Z,14.07
2022-09-11T07:41:31.882Z,14.07
2022-09-11T07:44:01.224Z,13.92
2022-09-11T07:46:30.941Z,14.01
2022-09-11T07:48:59.224Z,14.14
2022-09-11T07:51:28.616Z,14.20
2022-09-11T07:53:59.442Z,14.13
2022-09-11T07:56:28.590Z,14.32
2022-09-11T07:58:57.497Z,14.42
2022-09-11T08:01:27.423Z,14.64
2022-09-11T08:03:57.640Z,14.50
2022-09-11T08:06:27.158Z,14.65
2022-09-11T08:08:58.861Z,14.68
2022-09-11T08:11:28.235Z,14.73
2022-09-11T08:13:57.379Z,14.71
2022-09-11T08:16:27.884Z,14.68
2022-09-11T08:18:56.987Z,14.84
2022-09-11T08:21:26.141Z,14.84
2022-09-11T08:23:54.554Z,14.69
2022-09-11T08:26:25.731Z,14.72
2022-09-11T08:28:55.659Z,14.72
2022-09-11T08:31:26.898Z,14.67
2022-09-11T08:33:55.614Z,14.73
2022-09-11T08:36:24.429Z,14.96
2022-09-11T08:38:52.983Z,15.04
2022-09-11T08:41:31.184Z,15.28
2022-09-11T08:44:02.759Z,15.22
2022-09-11T08:46:35.709Z,15.02
2022-09-11T08:49:11.497Z,14.79
2022-09-11T08:51:40.405Z,14.76
2022-09-11T08:54:08.965Z,14.75
2022-09-11T08:56:39.208Z,14.83
2022-09-11T08:59:19.757Z,14.85
2022-09-11T09:01:57.857Z,15.06
2022-09-11T09:04:45.494Z,15.20
2022-09-11T09:07:25.186Z,15.23
2022-09-11T09:10:01.952Z,15.11
2022-09-11T09:12:40.227Z,15.06
2022-09-11T09:15:27.351Z,15.11
2022-09-11T09:18:00.682Z,15.21
2022-09-11T09:20:32.831Z,15.21
2022-09-11T09:23:05.162Z,15.49
2022-09-11T09:25:37.819Z,15.74
2022-09-11T09:28:15.881Z,15.89
2022-09-11T09:30:50.362Z,16.05
2022-09-11T09:33:30.932Z,16.05
2022-09-11T09:36:07.658Z,16.15
2022-09-11T09:38:35.630Z,16.06
2022-09-11T09:41:20.474Z,15.97
2022-09-11T09:44:01.989Z,15.92
2022-09-11T09:46:41.705Z,15.93
2022-09-11T09:49:11.703Z,15.92
2022-09-11T09:51:40.523Z,16.07
2022-09-11T09:54:15.935Z,16.12
2022-09-11T09:56:49.399Z,16.42
2022-09-11T09:59:27.693Z,16.53
2022-09-11T10:01:56.374Z,16.57
2022-09-11T10:04:26.967Z,16.64
2022-09-11T10:07:06.196Z,16.66
2022-09-11T10:09:34.420Z,16.69
2022-09-11T10:12:06.042Z,16.54
2022-09-11T10:14:52.272Z,16.42
2022-09-11T10:17:21.747Z,16.32
2022-09-11T10:19:56.957Z,16.38
2022-09-11T10:22:30.616Z,16.49
2022-09-11T10:25:04.913Z,16.60
2022-09-11T10:27:36.215Z,16.92
2022-09-11T10:30:06.379Z,16.91
2022-09-11T10:32:40.641Z,16.98
2022-09-11T10:35:11.234Z,16.89
2022-09-11T10:37:39.188Z,16.84
2022-09-11T10:40:20.329Z,16.83
2022-09-11T10:42:50.340Z,16.87
2022-09-11T10:45:22.461Z,16.77
2022-09-11T10:47:50.484Z,16.73
2022-09-11T10:50:25.337Z,16.61
2022-09-11T10:53:06.718Z,16.80
2022-09-11T10:55:38.868Z,16.83
2022-09-11T10:58:13.598Z,16.99
2022-09-11T11:00:42.953Z,16.87
2022-09-11T11:03:17.264Z,16.93
2022-09-11T11:05:54.151Z,17.00
2022-09-11T11:08:45.893Z,16.87
2022-09-11T11:11:25.631Z,16.93
2022-09-11T11:14:06.196Z,16.87
2022-09-11T11:16:47.485Z,16.82
2022-09-11T11:19:38.025Z,16.91
2022-09-11T11:22:13.483Z,16.84
2022-09-11T11:24:55.209Z,16.93
2022-09-11T11:28:07.764Z,17.07
2022-09-11T11:30:43.125Z,17.35
2022-09-11T11:33:31.621Z,17.66
2022-09-11T11:36:04.392Z,17.90
2022-09-11T11:38:40.260Z,17.96
2022-09-11T11:41:16.647Z,18.15
2022-09-11T11:43:46.320Z,18.28
2022-09-11T11:46:19.395Z,18.34
2022-09-11T11:48:56.261Z,18.38
2022-09-11T11:51:28.375Z,18.55
2022-09-11T11:54:02.991Z,18.43
2022-09-11T11:56:39.144Z,18.35
2022-09-11T11:59:16.442Z,18.07
2022-09-11T12:01:49.538Z,18.08
2022-09-11T12:04:30.874Z,18.00
2022-09-11T12:07:00.983Z,17.98
2022-09-11T12:09:33.892Z,18.14
2022-09-11T12:12:07.157Z,18.15
2022-09-11T12:14:35.339Z,18.37
2022-09-11T12:17:19.780Z,18.53
2022-09-11T12:20:33.265Z,18.98
2022-09-11T12:23:01.722Z,19.17
2022-09-11T12:25:53.654Z,19.02
2022-09-11T12:28:23.892Z,18.87
2022-09-11T12:31:01.177Z,19.07
2022-09-11T12:33:54.434Z,18.75
2022-09-11T12:36:44.889Z,18.77
2022-09-11T12:39:27.062Z,19.00
2022-09-11T12:42:33.302Z,19.47
2022-09-11T12:45:04.474Z,20.77
2022-09-11T12:47:36.722Z,21.07
2022-09-11T12:50:16.402Z,20.63
2022-09-11T12:52:55.112Z,20.93
2022-09-11T12:55:33.184Z,21.53
2022-09-11T12:58:06.711Z,22.54
2022-09-11T13:00:39.519Z,22.58
2022-09-11T13:03:17.317Z,21.76
2022-09-11T13:05:54.533Z,21.03
2022-09-11T13:08:27.664Z,20.58
2022-09-11T13:11:35.282Z,20.02
2022-09-11T13:14:04.332Z,19.78
2022-09-11T13:16:34.823Z,19.70
2022-09-11T13:19:13.471Z,20.64
2022-09-11T13:21:42.968Z,21.11
2022-09-11T13:24:25.240Z,22.02
2022-09-11T13:26:55.346Z,22.68
2022-09-11T13:29:26.697Z,24.40
2022-09-11T13:31:55.686Z,24.98
2022-09-11T13:34:26.088Z,25.55
2022-09-11T13:36:56.638Z,24.42
2022-09-11T13:39:27.877Z,22.74
2022-09-11T13:42:02.516Z,21.82
2022-09-11T13:44:41.481Z,21.24
2022-09-11T13:47:18.644Z,20.97
2022-09-11T13:49:48.542Z,21.34
2022-09-11T13:52:17.277Z,22.94
2022-09-11T13:54:50.325Z,24.16
2022-09-11T13:57:20.799Z,26.20
2022-09-11T13:59:51.969Z,26.85
2022-09-11T14:02:41.407Z,27.47
2022-09-11T14:05:14.192Z,26.95
2022-09-11T14:07:47.427Z,25.23
2022-09-11T14:10:25.397Z,24.43
2022-09-11T14:12:59.365Z,25.30
2022-09-11T14:15:39.869Z,24.08
2022-09-11T14:18:14.103Z,22.97
2022-09-11T14:20:45.861Z,22.01
2022-09-11T14:23:19.954Z,21.70
2022-09-11T14:26:09.555Z,22.37
2022-09-11T14:28:43.933Z,22.13
2022-09-11T14:31:14.342Z,23.20
2022-09-11T14:33:42.509Z,24.80
2022-09-11T14:36:19.603Z,25.40
2022-09-11T14:38:48.558Z,25.66
2022-09-11T14:41:17.847Z,26.07
2022-09-11T14:43:49.510Z,24.49
2022-09-11T14:46:17.711Z,23.61
2022-09-11T14:48:45.728Z,22.85
2022-09-11T14:51:13.944Z,22.43
2022-09-11T14:53:43.433Z,21.19
2022-09-11T14:56:11.681Z,21.13
2022-09-11T14:58:41.059Z,20.85
2022-09-11T15:01:10.714Z,20.75
2022-09-11T15:03:39.115Z,20.39
2022-09-11T15:06:15.435Z,20.04
2022-09-11T15:08:43.388Z,19.86
2022-09-11T15:11:11.506Z,19.79
2022-09-11T15:13:57.940Z,20.01
2022-09-11T15:16:28.948Z,19.99
2022-09-11T15:18:56.893Z,19.97
2022-09-11T15:21:24.818Z,19.58
2022-09-11T15:23:53.990Z,19.19
2022-09-11T15:26:22.182Z,18.92
2022-09-11T15:28:53.334Z,18.72
2022-09-11T15:31:21.439Z,18.67
2022-09-11T15:33:51.518Z,18.55
2022-09-11T15:36:21.314Z,18.44
2022-09-11T15:38:53.482Z,18.35
2022-09-11T15:41:21.940Z,18.54
2022-09-11T15:43:51.522Z,18.60
2022-09-11T15:46:22.590Z,18.63
2022-09-11T15:48:51.557Z,18.83
2022-09-11T15:51:21.699Z,19.68
2022-09-11T15:53:49.627Z,20.94
2022-09-11T15:56:23.869Z,21.17
2022-09-11T15:58:58.211Z,20.91
2022-09-11T16:01:28.968Z,20.59
2022-09-11T16:06:29.121Z,21.40
2022-09-11T16:08:57.926Z,22.51
2022-09-11T16:11:26.717Z,21.95
2022-09-11T16:13:56.053Z,22.14
2022-09-11T16:16:24.260Z,22.09
2022-09-11T16:18:53.184Z,21.98
2022-09-11T16:21:23.107Z,21.80
2022-09-11T16:23:55.074Z,21.38
2022-09-11T16:26:25.189Z,20.57
2022-09-11T16:28:53.180Z,20.37
2022-09-11T16:31:22.562Z,19.99
2022-09-11T16:33:50.981Z,19.56
2022-09-11T16:36:20.554Z,19.15
2022-09-11T16:38:50.102Z,19.04
2022-09-11T16:41:20.376Z,18.85
2022-09-11T16:43:50.045Z,18.78
2022-09-11T16:46:19.930Z,18.56
2022-09-11T16:48:53.950Z,18.41
2022-09-11T16:51:23.486Z,18.35
2022-09-11T16:53:52.173Z,18.30
2022-09-11T16:56:22.858Z,18.21
2022-09-11T16:58:50.972Z,18.29
2022-09-11T17:01:21.224Z,18.27
2022-09-11T17:03:52.740Z,18.27
2022-09-11T17:06:21.972Z,18.19
2022-09-11T17:08:50.938Z,18.29
2022-09-11T17:11:20.815Z,18.34
2022-09-11T17:13:49.531Z,18.41
2022-09-11T17:16:19.551Z,18.37
2022-09-11T17:18:48.660Z,18.40
2022-09-11T17:21:18.343Z,18.33
2022-09-11T17:23:46.462Z,18.24
2022-09-11T17:26:16.794Z,18.25
2022-09-11T17:28:47.244Z,18.25
2022-09-11T17:31:17.552Z,18.22
2022-09-11T17:33:46.241Z,18.15
2022-09-11T17:36:17.178Z,18.05
2022-09-11T17:38:48.356Z,17.93
2022-09-11T17:41:17.175Z,17.76
2022-09-11T17:43:45.334Z,17.59
2022-09-11T17:46:16.010Z,17.51
2022-09-11T17:48:44.414Z,17.38
2022-09-11T17:51:15.511Z,17.27
2022-09-11T17:53:48.250Z,17.15
2022-09-11T17:56:18.556Z,17.10
2022-09-11T17:58:50.983Z,16.96
2022-09-11T18:01:19.393Z,16.92
2022-09-11T18:03:51.401Z,16.87
2022-09-11T18:06:23.245Z,16.88
2022-09-11T18:08:54.460Z,16.77
2022-09-11T18:11:22.559Z,16.92
2022-09-11T18:13:50.535Z,16.89
2022-09-11T18:16:18.590Z,16.85
2022-09-11T18:18:46.552Z,16.82
2022-09-11T18:21:14.696Z,16.78
2022-09-11T18:23:45.556Z,16.76
2022-09-11T18:26:23.047Z,16.67
2022-09-11T18:28:51.595Z,16.59
2022-09-11T18:31:20.168Z,16.47
2022-09-11T18:33:54.643Z,16.27
2022-09-11T18:36:23.569Z,16.18
2022-09-11T18:38:51.747Z,16.10
2022-09-11T18:41:21.787Z,16.04
2022-09-11T18:43:50.067Z,16.01
2022-09-11T18:46:19.006Z,15.96
2022-09-11T18:48:47.101Z,15.85
2022-09-11T18:51:15.252Z,15.71
2022-09-11T18:53:43.855Z,15.57
2022-09-11T18:56:12.053Z,15.51
2022-09-11T18:58:41.816Z,15.50
2022-09-11T19:01:11.512Z,15.50
2022-09-11T19:03:42.138Z,15.53
2022-09-11T19:06:12.319Z,15.52
2022-09-11T19:08:44.307Z,15.49
2022-09-11T19:11:14.344Z,15.36
2022-09-11T19:13:44.855Z,15.35
2022-09-11T19:16:14.550Z,15.37
2022-09-11T19:18:43.045Z,15.34
2022-09-11T19:21:13.030Z,15.27
2022-09-11T19:23:42.372Z,15.17
2022-09-11T19:26:12.654Z,14.99
2022-09-11T19:28:44.157Z,14.91
2022-09-11T19:31:14.301Z,14.79
2022-09-11T19:33:44.396Z,14.60
2022-09-11T19:36:17.121Z,14.55
2022-09-11T19:38:46.844Z,14.54
2022-09-11T19:41:17.220Z,14.51
2022-09-11T19:43:47.623Z,14.39
2022-09-11T19:46:17.271Z,14.29
2022-09-11T19:48:46.392Z,14.36
2022-09-11T19:51:17.282Z,14.36
2022-09-11T19:53:45.931Z,14.31
2022-09-11T19:56:14.040Z,14.32
2022-09-11T19:58:43.065Z,14.31
2022-09-11T20:01:14.444Z,14.30
2022-09-11T20:03:44.044Z,14.22
2022-09-11T20:06:13.987Z,14.09
2022-09-11T20:08:43.866Z,14.00
2022-09-11T20:11:14.152Z,13.92
2022-09-11T20:13:42.360Z,13.83
2022-09-11T20:16:15.948Z,13.76
2022-09-11T20:18:44.498Z,13.78
2022-09-11T20:21:15.518Z,13.76
2022-09-11T20:23:44.638Z,13.70
2022-09-11T20:26:17.399Z,13.72
2022-09-11T20:28:46.428Z,13.66
2022-09-11T20:31:17.718Z,13.59
2022-09-11T20:33:47.592Z,13.48
2022-09-11T20:36:15.648Z,13.42
2022-09-11T20:38:43.897Z,13.41
2022-09-11T20:41:13.983Z,13.28
2022-09-11T20:43:42.721Z,13.25
2022-09-11T20:46:12.390Z,13.32
2022-09-11T20:48:41.725Z,13.27
2022-09-11T20:51:11.785Z,13.26
2022-09-11T20:53:41.650Z,13.23
2022-09-11T20:56:11.276Z,13.24
2022-09-11T20:58:39.883Z,13.21
2022-09-11T21:01:09.287Z,13.19
2022-09-11T21:03:37.285Z,13.16
2022-09-11T21:06:10.031Z,13.10
2022-09-11T21:08:38.222Z,13.02
2022-09-11T21:11:06.836Z,12.90
2022-09-11T21:13:35.832Z,12.81
2022-09-11T21:16:07.238Z,12.76
2022-09-11T21:18:35.990Z,12.76
2022-09-11T21:21:04.460Z,12.73
2022-09-11T21:23:34.186Z,12.73
2022-09-11T21:26:02.459Z,12.73
2022-09-11T21:28:30.381Z,12.69
2022-09-11T21:30:59.496Z,12.69
2022-09-11T21:33:27.857Z,12.63
2022-09-11T21:35:56.326Z,12.63
2022-09-11T21:38:28.414Z,12.59
2022-09-11T21:40:58.544Z,12.58
2022-09-11T21:43:27.174Z,12.56
2022-09-11T21:45:55.436Z,12.52
2022-09-11T21:48:24.296Z,12.45
2022-09-11T21:50:52.891Z,12.28
2022-09-11T21:53:21.254Z,12.31
2022-09-11T21:55:49.507Z,12.24
2022-09-11T21:58:21.234Z,12.19
2022-09-11T22:00:50.033Z,12.18
2022-09-11T22:03:19.502Z,12.13
2022-09-11T22:05:51.190Z,12.14
2022-09-11T22:08:20.208Z,12.07
2022-09-11T22:10:50.443Z,12.11
2022-09-11T22:13:20.545Z,12.08
2022-09-11T22:15:50.959Z,12.00
2022-09-11T22:18:19.980Z,11.95
2022-09-11T22:20:47.981Z,11.88
2022-09-11T22:23:18.091Z,11.89
2022-09-11T22:25:47.100Z,11.89
2022-09-11T22:28:15.982Z,11.90
2022-09-11T22:30:45.408Z,11.91
2022-09-11T22:33:13.346Z,11.83
2022-09-11T22:35:41.285Z,11.78
2022-09-11T22:38:09.253Z,11.68
2022-09-11T22:40:37.190Z,11.56
2022-09-11T22:43:05.156Z,11.55
2022-09-11T22:45:33.187Z,11.52
2022-09-11T22:48:02.969Z,11.59
2022-09-11T22:50:31.012Z,11.65
2022-09-11T22:52:58.956Z,11.68
2022-09-11T22:55:26.884Z,11.69
2022-09-11T22:57:55.182Z,11.64
2022-09-11T23:00:23.304Z,11.63
2022-09-11T23:02:51.241Z,11.67
2022-09-11T23:05:37.978Z,11.69
2022-09-11T23:08:05.933Z,11.64
2022-09-11T23:10:33.875Z,11.68
2022-09-11T23:13:01.830Z,11.63
2022-09-11T23:15:29.754Z,11.61
2022-09-11T23:17:57.687Z,11.58
2022-09-11T23:20:27.042Z,11.54
2022-09-11T23:22:55.105Z,11.48
2022-09-11T23:25:25.050Z,11.48
2022-09-11T23:27:53.694Z,11.55
2022-09-11T23:30:21.638Z,11.52
2022-09-11T23:32:49.601Z,11.46
2022-09-11T23:35:18.403Z,11.46
2022-09-11T23:37:48.129Z,11.36
2022-09-11T23:40:16.267Z,11.30
2022-09-11T23:42:44.274Z,11.23
2022-09-11T23:45:12.969Z,11.13
2022-09-11T23:47:40.893Z,11.05
2022-09-11T23:50:10.753Z,11.01
2022-09-11T23:52:39.563Z,10.93
2022-09-11T23:55:09.605Z,10.85
2022-09-11T23:57:37.568Z,10.80
